createdAt,value
2022-09-28T00:01:20.777Z,7.93
2022-09-28T00:03:51.428Z,7.85
2022-09-28T00:06:22.480Z,7.76
2022-09-28T00:08:52.641Z,7.76
2022-09-28T00:11:22.349Z,7.78
2022-09-28T00:13:53.008Z,7.77
2022-09-28T00:16:24.265Z,7.87
2022-09-28T00:18:52.323Z,7.90
2022-09-28T00:21:23.449Z,7.85
2022-09-28T00:24:15.192Z,7.91
2022-09-28T00:26:54.577Z,7.90
2022-09-28T00:29:28.722Z,7.87
2022-09-28T00:32:07.301Z,7.83
2022-09-28T00:34:46.058Z,7.83
2022-09-28T00:37:15.234Z,7.67
2022-09-28T00:39:43.512Z,7.62
2022-09-28T00:42:19.237Z,7.52
2022-09-28T00:44:56.013Z,7.58
2022-09-28T00:47:51.650Z,7.53
2022-09-28T00:50:21.470Z,7.48
2022-09-28T00:53:10.130Z,7.44
2022-09-28T00:55:47.974Z,7.35
2022-09-28T00:58:21.770Z,7.35
2022-09-28T01:00:49.723Z,7.33
2022-09-28T01:03:17.555Z,7.26
2022-09-28T01:05:47.097Z,7.21
2022-09-28T01:08:16.157Z,7.27
2022-09-28T01:10:43.887Z,7.21
2022-09-28T01:13:14.109Z,7.33
2022-09-28T01:16:11.375Z,7.30
2022-09-28T01:19:24.426Z,7.30
2022-09-28T01:22:21.160Z,7.33
2022-09-28T01:25:25.191Z,7.30
2022-09-28T01:28:04.528Z,7.34
2022-09-28T01:30:51.045Z,7.33
2022-09-28T01:33:26.637Z,7.32
2022-09-28T01:36:34.850Z,7.23
2022-09-28T01:39:17.028Z,7.16
2022-09-28T01:41:49.287Z,7.10
2022-09-28T01:44:20.054Z,7.12
2022-09-28T01:46:49.243Z,6.99
2022-09-28T01:49:19.862Z,6.96
2022-09-28T01:52:04.487Z,6.97
2022-09-28T01:54:51.159Z,6.97
2022-09-28T01:57:42.353Z,6.96
2022-09-28T02:00:15.063Z,6.83
2022-09-28T02:03:09.751Z,6.74
2022-09-28T02:05:52.926Z,6.57
2022-09-28T02:08:35.105Z,6.47
2022-09-28T02:11:20.115Z,6.26
2022-09-28T02:14:08.311Z,6.16
2022-09-28T02:16:51.998Z,6.08
2022-09-28T02:19:27.603Z,5.99
2022-09-28T02:22:28.645Z,5.97
2022-09-28T02:25:35.642Z,6.08
2022-09-28T02:28:07.471Z,6.16
2022-09-28T02:30:38.419Z,6.02
2022-09-28T02:33:36.328Z,5.93
2022-09-28T02:36:04.367Z,5.87
2022-09-28T02:38:38.048Z,5.77
2022-09-28T02:41:38.876Z,5.83
2022-09-28T02:44:37.596Z,5.95
2022-09-28T02:47:41.622Z,5.95
2022-09-28T02:50:24.903Z,5.91
2022-09-28T02:53:16.038Z,5.90
2022-09-28T02:56:12.930Z,5.93
2022-09-28T02:58:59.080Z,5.90
2022-09-28T03:01:33.469Z,5.98
2022-09-28T03:04:41.492Z,6.16
2022-09-28T03:07:46.721Z,6.24
2022-09-28T03:10:41.828Z,6.37
2022-09-28T03:13:10.999Z,6.48
2022-09-28T03:15:38.420Z,6.44
2022-09-28T03:18:05.635Z,6.31
2022-09-28T03:20:33.696Z,6.27
2022-09-28T03:25:49.230Z,6.29
2022-09-28T03:28:16.517Z,6.45
2022-09-28T03:30:43.680Z,6.52
2022-09-28T03:33:11.400Z,6.41
2022-09-28T03:35:39.201Z,6.34
2022-09-28T03:38:06.518Z,6.14
2022-09-28T03:40:37.699Z,6.03
2022-09-28T03:43:04.968Z,5.90
2022-09-28T03:45:32.152Z,5.81
2022-09-28T03:48:00.288Z,5.74
2022-09-28T03:50:27.607Z,5.69
2022-09-28T03:52:54.828Z,5.65
2022-09-28T03:55:22.128Z,5.57
2022-09-28T03:57:56.175Z,5.50
2022-09-28T04:00:23.999Z,5.41
2022-09-28T04:02:51.414Z,5.48
2022-09-28T04:05:18.675Z,5.51
2022-09-28T04:07:45.968Z,5.55
2022-09-28T04:10:13.141Z,5.53
2022-09-28T04:12:40.348Z,5.50
2022-09-28T04:15:08.045Z,5.43
2022-09-28T04:17:39.805Z,5.41
2022-09-28T04:20:11.115Z,5.33
2022-09-28T04:22:48.829Z,5.31
2022-09-28T04:25:16.270Z,5.26
2022-09-28T04:28:02.240Z,5.26
2022-09-28T04:30:30.253Z,5.21
2022-09-28T04:32:57.550Z,5.19
2022-09-28T04:35:25.156Z,5.21
2022-09-28T04:37:52.469Z,5.23
2022-09-28T04:40:19.887Z,5.21
2022-09-28T04:42:57.095Z,5.17
2022-09-28T04:45:28.658Z,5.14
2022-09-28T04:48:01.589Z,5.22
2022-09-28T04:51:00.525Z,5.31
2022-09-28T04:53:28.772Z,5.29
2022-09-28T04:56:21.455Z,5.29
2022-09-28T04:58:52.730Z,5.48
2022-09-28T05:01:23.939Z,5.81
2022-09-28T05:04:11.212Z,5.97
2022-09-28T05:06:47.649Z,5.79
2022-09-28T05:09:15.103Z,5.45
2022-09-28T05:11:42.555Z,5.39
2022-09-28T05:14:15.619Z,5.63
2022-09-28T05:16:43.069Z,5.94
2022-09-28T05:19:36.854Z,6.32
2022-09-28T05:22:06.023Z,6.51
2022-09-28T05:24:39.165Z,6.71
2022-09-28T05:27:06.563Z,7.08
2022-09-28T05:29:34.339Z,7.42
2022-09-28T05:32:19.941Z,7.66
2022-09-28T05:35:01.305Z,7.84
2022-09-28T05:37:39.370Z,7.88
2022-09-28T05:40:07.664Z,7.86
2022-09-28T05:42:35.012Z,8.04
2022-09-28T05:45:03.443Z,8.34
2022-09-28T05:47:30.750Z,8.70
2022-09-28T05:49:57.892Z,9.04
2022-09-28T05:52:25.167Z,9.74
2022-09-28T05:54:52.393Z,11.11
2022-09-28T05:57:19.700Z,12.57
2022-09-28T05:59:47.116Z,13.84
2022-09-28T06:02:14.426Z,14.84
2022-09-28T06:04:43.050Z,15.24
2022-09-28T06:07:10.497Z,15.08
2022-09-28T06:09:37.778Z,15.63
2022-09-28T06:12:11.285Z,16.27
2022-09-28T06:14:45.554Z,16.72
2022-09-28T06:17:13.759Z,17.05
2022-09-28T06:19:44.262Z,17.83
2022-09-28T06:22:26.187Z,18.05
2022-09-28T06:25:04.028Z,18.36
2022-09-28T06:27:31.453Z,16.51
2022-09-28T06:30:00.935Z,14.84
2022-09-28T06:32:29.820Z,14.45
2022-09-28T06:34:57.268Z,15.09
2022-09-28T06:37:27.283Z,16.53
2022-09-28T06:39:55.537Z,15.69
2022-09-28T06:42:23.469Z,14.92
2022-09-28T06:45:25.447Z,14.81
2022-09-28T06:48:23.773Z,15.42
2022-09-28T06:50:51.042Z,16.83
2022-09-28T06:53:28.732Z,18.36
2022-09-28T06:56:11.389Z,17.02
2022-09-28T06:58:38.680Z,15.10
2022-09-28T07:01:06.209Z,13.81
2022-09-28T07:03:43.859Z,14.91
2022-09-28T07:06:38.668Z,16.86
2022-09-28T07:09:32.899Z,19.74
2022-09-28T07:12:13.462Z,21.66
2022-09-28T07:15:05.037Z,22.65
2022-09-28T07:17:41.178Z,23.24
2022-09-28T07:20:19.228Z,21.88
2022-09-28T07:22:59.626Z,19.18
2022-09-28T07:25:32.441Z,17.56
2022-09-28T07:28:09.581Z,16.52
2022-09-28T07:30:57.981Z,16.54
2022-09-28T07:33:43.758Z,16.55
2022-09-28T07:36:23.858Z,19.91
2022-09-28T07:38:52.943Z,22.55
2022-09-28T07:41:32.217Z,25.10
2022-09-28T07:44:06.336Z,26.39
2022-09-28T07:46:37.134Z,26.24
2022-09-28T07:49:12.213Z,26.42
2022-09-28T07:52:02.157Z,25.97
2022-09-28T07:54:31.384Z,25.59
2022-09-28T07:57:01.504Z,26.68
2022-09-28T07:59:53.712Z,27.44
2022-09-28T08:02:39.650Z,25.63
2022-09-28T08:05:10.146Z,26.75
2022-09-28T08:07:38.422Z,27.18
2022-09-28T08:10:09.546Z,26.71
2022-09-28T08:12:47.353Z,23.45
2022-09-28T08:15:37.031Z,20.41
2022-09-28T08:18:27.459Z,18.31
2022-09-28T08:21:13.463Z,19.02
2022-09-28T08:23:40.749Z,18.24
2022-09-28T08:26:13.295Z,17.53
2022-09-28T08:28:45.212Z,19.85
2022-09-28T08:31:47.498Z,20.23
2022-09-28T08:34:33.312Z,22.88
2022-09-28T08:37:29.975Z,25.90
2022-09-28T08:40:26.083Z,26.59
2022-09-28T08:43:41.772Z,28.95
2022-09-28T08:46:29.402Z,28.15
2022-09-28T08:49:37.397Z,28.07
2022-09-28T08:52:28.214Z,27.96
2022-09-28T08:55:39.697Z,28.79
2022-09-28T08:58:20.399Z,30.30
2022-09-28T09:00:51.941Z,29.23
2022-09-28T09:03:42.489Z,29.87
2022-09-28T09:17:19.993Z,30.26
2022-09-28T09:20:49.335Z,28.53
2022-09-28T09:23:39.651Z,24.49
2022-09-28T09:26:23.498Z,22.04
2022-09-28T09:29:19.457Z,22.33
2022-09-28T09:32:30.822Z,21.00
2022-09-28T09:35:31.517Z,20.06
2022-09-28T09:38:52.724Z,18.95
2022-09-28T09:42:10.677Z,18.34
2022-09-28T09:45:25.263Z,18.61
2022-09-28T09:48:40.502Z,22.64
2022-09-28T09:51:57.334Z,20.18
2022-09-28T09:54:40.667Z,17.94
2022-09-28T09:57:29.304Z,17.65
2022-09-28T10:00:04.786Z,18.61
2022-09-28T10:03:03.662Z,19.62
2022-09-28T10:05:41.727Z,21.05
2022-09-28T10:08:18.221Z,20.15
2022-09-28T10:11:08.622Z,20.48
2022-09-28T10:13:40.445Z,20.75
2022-09-28T10:16:27.930Z,19.80
2022-09-28T10:19:00.750Z,20.67
2022-09-28T10:21:54.215Z,21.31
2022-09-28T10:24:32.237Z,20.47
2022-09-28T10:27:11.505Z,24.40
2022-09-28T10:30:19.424Z,25.09
2022-09-28T10:32:50.812Z,24.75
2022-09-28T10:35:41.309Z,27.11
2022-09-28T10:38:18.610Z,29.25
2022-09-28T10:40:55.360Z,29.12
2022-09-28T10:43:39.992Z,29.03
2022-09-28T10:46:15.805Z,30.04
2022-09-28T10:49:19.073Z,30.77
2022-09-28T10:51:57.037Z,30.73
2022-09-28T10:54:30.637Z,30.05
2022-09-28T10:57:00.430Z,30.13
2022-09-28T10:59:42.280Z,30.23
2022-09-28T11:02:42.280Z,30.00
2022-09-28T11:05:28.327Z,29.61
2022-09-28T11:08:07.677Z,29.16
2022-09-28T11:10:42.927Z,28.51
2022-09-28T11:13:14.543Z,26.11
2022-09-28T11:15:46.889Z,24.22
2022-09-28T11:18:31.582Z,23.75
2022-09-28T11:21:16.030Z,23.06
2022-09-28T11:24:21.936Z,23.33
2022-09-28T11:26:56.375Z,21.64
2022-09-28T11:29:38.320Z,19.64
2022-09-28T11:32:29.012Z,19.54
2022-09-28T11:35:50.168Z,18.95
2022-09-28T11:38:57.998Z,18.79
2022-09-28T11:42:16.622Z,19.63
2022-09-28T11:44:49.083Z,20.78
2022-09-28T11:47:51.626Z,22.51
2022-09-28T11:50:24.803Z,21.94
2022-09-28T11:53:23.525Z,19.99
2022-09-28T11:56:19.114Z,19.67
2022-09-28T11:58:52.406Z,19.77
2022-09-28T12:01:35.658Z,20.11
2022-09-28T12:04:26.473Z,20.95
2022-09-28T12:07:27.842Z,19.68
2022-09-28T12:10:19.649Z,18.74
2022-09-28T12:13:13.371Z,19.12
2022-09-28T12:17:00.394Z,18.63
2022-09-28T12:19:50.290Z,19.00
2022-09-28T12:22:57.815Z,18.78
2022-09-28T12:25:27.826Z,18.27
2022-09-28T12:28:20.676Z,17.96
2022-09-28T12:30:49.367Z,17.81
2022-09-28T12:33:17.010Z,17.75
2022-09-28T12:36:00.802Z,17.50
2022-09-28T12:39:18.023Z,18.12
2022-09-28T12:42:16.601Z,19.36
2022-09-28T12:45:07.203Z,19.28
2022-09-28T12:47:58.295Z,18.71
2022-09-28T12:50:48.662Z,18.07
2022-09-28T12:53:38.938Z,17.66
2022-09-28T12:56:21.772Z,17.01
2022-09-28T12:59:26.174Z,16.81
2022-09-28T13:02:20.619Z,16.79
2022-09-28T13:05:21.815Z,16.48
2022-09-28T13:08:37.215Z,16.15
2022-09-28T13:11:54.520Z,15.85
2022-09-28T13:14:24.482Z,15.75
2022-09-28T13:17:06.709Z,15.66
2022-09-28T13:20:07.652Z,15.54
2022-09-28T13:23:07.318Z,15.43
2022-09-28T13:25:40.367Z,15.69
2022-09-28T13:28:08.395Z,15.61
2022-09-28T13:30:40.408Z,15.47
2022-09-28T13:33:13.993Z,15.55
2022-09-28T13:35:44.380Z,15.73
2022-09-28T13:38:17.565Z,15.84
2022-09-28T13:41:06.323Z,16.16
2022-09-28T13:44:10.087Z,16.17
2022-09-28T13:46:42.967Z,16.25
2022-09-28T13:49:45.250Z,16.15
2022-09-28T13:52:47.925Z,16.22
2022-09-28T13:55:23.526Z,15.88
2022-09-28T13:58:21.412Z,15.83
2022-09-28T14:01:06.871Z,15.90
2022-09-28T14:04:01.659Z,15.68
2022-09-28T14:06:33.240Z,15.29
2022-09-28T14:09:41.377Z,15.35
2022-09-28T14:12:35.354Z,15.28
2022-09-28T14:15:25.875Z,15.24
2022-09-28T14:18:33.544Z,15.24
2022-09-28T14:21:26.137Z,14.84
2022-09-28T14:24:27.530Z,15.02
2022-09-28T14:27:41.824Z,14.99
2022-09-28T14:30:11.848Z,15.07
2022-09-28T14:32:43.273Z,15.02
2022-09-28T14:35:27.054Z,14.84
2022-09-28T14:38:32.123Z,14.88
2022-09-28T14:41:35.623Z,14.94
2022-09-28T14:44:09.327Z,15.01
2022-09-28T14:46:45.962Z,14.98
2022-09-28T14:49:23.333Z,14.57
2022-09-28T14:51:53.398Z,14.50
2022-09-28T14:54:22.787Z,14.57
2022-09-28T14:57:08.172Z,14.71
2022-09-28T14:59:43.595Z,14.77
2022-09-28T15:02:25.305Z,14.61
2022-09-28T15:05:30.725Z,14.55
2022-09-28T15:07:58.566Z,14.52
2022-09-28T15:10:36.437Z,14.45
2022-09-28T15:13:16.282Z,14.36
2022-09-28T15:15:50.541Z,14.43
2022-09-28T15:18:43.962Z,14.40
2022-09-28T15:21:12.878Z,14.44
2022-09-28T15:23:44.096Z,14.41
2022-09-28T15:26:32.978Z,14.24
2022-09-28T15:29:04.353Z,14.23
2022-09-28T15:31:36.096Z,14.12
2022-09-28T15:34:22.107Z,14.03
2022-09-28T15:36:50.067Z,13.99
2022-09-28T15:39:32.355Z,13.97
2022-09-28T15:42:02.280Z,13.91
2022-09-28T15:44:37.292Z,13.80
2022-09-28T15:47:19.303Z,13.56
2022-09-28T15:50:06.510Z,13.61
2022-09-28T15:53:04.904Z,13.49
2022-09-28T15:55:42.493Z,13.41
2022-09-28T15:58:22.787Z,13.35
2022-09-28T16:01:11.246Z,13.41
2022-09-28T16:03:38.626Z,13.30
2022-09-28T16:06:09.414Z,13.30
2022-09-28T16:08:36.489Z,13.24
2022-09-28T16:11:12.539Z,13.14
2022-09-28T16:13:54.467Z,13.11
2022-09-28T16:16:30.936Z,13.14
2022-09-28T16:19:01.165Z,13.14
2022-09-28T16:21:36.579Z,13.04
2022-09-28T16:24:04.332Z,13.12
2022-09-28T16:26:37.534Z,13.13
2022-09-28T16:29:39.916Z,13.21
2022-09-28T16:32:53.112Z,13.21
2022-09-28T16:35:28.509Z,13.18
2022-09-28T16:38:11.645Z,13.27
2022-09-28T16:40:46.344Z,13.32
2022-09-28T16:43:37.842Z,13.29
2022-09-28T16:46:14.797Z,13.27
2022-09-28T16:48:51.518Z,13.26
2022-09-28T16:51:23.662Z,13.27
2022-09-28T16:54:09.554Z,13.35
2022-09-28T16:56:37.231Z,13.38
2022-09-28T16:59:04.961Z,13.57
2022-09-28T17:01:33.044Z,13.58
2022-09-28T17:04:00.386Z,13.64
2022-09-28T17:06:27.728Z,13.57
2022-09-28T17:08:56.781Z,13.57
2022-09-28T17:11:25.190Z,13.60
2022-09-28T17:13:56.793Z,13.58
2022-09-28T17:16:58.215Z,13.48
2022-09-28T17:19:23.857Z,13.55
2022-09-28T17:21:52.997Z,13.58
2022-09-28T17:24:21.077Z,13.65
2022-09-28T17:26:52.000Z,13.67
2022-09-28T17:29:19.591Z,13.64
2022-09-28T17:31:48.120Z,13.65
2022-09-28T17:34:16.862Z,13.59
2022-09-28T17:36:44.940Z,13.69
2022-09-28T17:39:15.473Z,13.67
2022-09-28T17:41:43.401Z,13.71
2022-09-28T17:44:14.764Z,13.65
2022-09-28T17:46:47.650Z,13.64
2022-09-28T17:49:15.993Z,13.56
2022-09-28T17:51:43.489Z,13.54
2022-09-28T17:54:13.019Z,13.39
2022-09-28T17:56:40.409Z,13.43
2022-09-28T17:59:13.500Z,13.27
2022-09-28T18:01:41.165Z,13.21
2022-09-28T18:04:23.109Z,13.23
2022-09-28T18:07:00.290Z,13.25
2022-09-28T18:09:27.876Z,13.23
2022-09-28T18:12:04.314Z,13.25
2022-09-28T18:14:32.717Z,13.29
2022-09-28T18:16:59.992Z,13.21
2022-09-28T18:19:31.734Z,13.27
2022-09-28T18:21:59.569Z,13.25
2022-09-28T18:24:26.988Z,13.31
2022-09-28T18:26:54.240Z,13.18
2022-09-28T18:29:21.353Z,13.10
2022-09-28T18:31:49.038Z,13.13
2022-09-28T18:34:16.805Z,13.15
2022-09-28T18:36:44.203Z,13.10
2022-09-28T18:39:11.669Z,13.18
2022-09-28T18:41:39.011Z,13.23
2022-09-28T18:44:06.351Z,13.25
2022-09-28T18:46:36.682Z,13.21
2022-09-28T18:49:04.637Z,13.17
2022-09-28T18:51:31.786Z,13.12
2022-09-28T18:54:00.192Z,13.16
2022-09-28T18:56:28.015Z,13.22
2022-09-28T18:58:56.899Z,13.12
2022-09-28T19:01:31.869Z,13.07
2022-09-28T19:04:01.506Z,13.03
2022-09-28T19:06:29.910Z,13.07
2022-09-28T19:08:57.988Z,12.97
2022-09-28T19:11:26.885Z,12.96
2022-09-28T19:13:55.976Z,12.95
2022-09-28T19:16:27.400Z,12.94
2022-09-28T19:19:00.953Z,12.91
2022-09-28T19:21:28.750Z,12.95
2022-09-28T19:23:55.965Z,12.91
2022-09-28T19:26:27.428Z,12.88
2022-09-28T19:28:57.652Z,12.90
2022-09-28T19:31:26.284Z,12.98
2022-09-28T19:33:53.469Z,12.96
2022-09-28T19:36:24.211Z,13.01
2022-09-28T19:38:53.367Z,12.90
2022-09-28T19:41:43.960Z,12.95
2022-09-28T19:44:27.901Z,12.94
2022-09-28T19:47:06.764Z,12.93
2022-09-28T19:49:37.309Z,12.97
2022-09-28T19:52:13.460Z,12.93
2022-09-28T19:54:54.472Z,12.88
2022-09-28T19:57:27.826Z,12.84
2022-09-28T20:00:01.739Z,12.87
2022-09-28T20:02:34.352Z,12.86
2022-09-28T20:05:01.677Z,12.80
2022-09-28T20:07:32.904Z,12.84
2022-09-28T20:10:00.361Z,12.77
2022-09-28T20:12:27.572Z,12.81
2022-09-28T20:14:54.786Z,12.78
2022-09-28T20:17:22.318Z,12.74
2022-09-28T20:19:51.767Z,12.82
2022-09-28T20:22:20.123Z,12.86
2022-09-28T20:24:47.542Z,12.79
2022-09-28T20:27:14.699Z,12.84
2022-09-28T20:29:43.160Z,12.86
2022-09-28T20:32:11.697Z,12.75
2022-09-28T20:34:38.991Z,12.67
2022-09-28T20:37:06.454Z,12.61
2022-09-28T20:39:34.561Z,12.63
2022-09-28T20:42:02.307Z,12.60
2022-09-28T20:44:29.509Z,12.48
2022-09-28T20:46:56.842Z,12.47
2022-09-28T20:49:24.351Z,12.59
2022-09-28T20:51:51.714Z,12.58
2022-09-28T20:54:20.672Z,12.56
2022-09-28T20:56:48.319Z,12.51
2022-09-28T20:59:15.787Z,12.45
2022-09-28T21:01:43.373Z,12.42
2022-09-28T21:04:11.129Z,12.26
2022-09-28T21:06:41.218Z,12.39
2022-09-28T21:09:10.746Z,12.41
2022-09-28T21:11:39.838Z,12.42
2022-09-28T21:14:10.469Z,12.40
2022-09-28T21:16:38.269Z,12.35
2022-09-28T21:19:05.432Z,12.29
2022-09-28T21:21:32.948Z,12.30
2022-09-28T21:24:00.266Z,12.31
2022-09-28T21:26:31.308Z,12.16
2022-09-28T21:29:04.457Z,12.13
2022-09-28T21:31:40.379Z,12.08
2022-09-28T21:34:13.339Z,11.94
2022-09-28T21:36:43.414Z,11.79
2022-09-28T21:39:10.913Z,11.76
2022-09-28T21:41:38.286Z,11.88
2022-09-28T21:44:06.170Z,11.81
2022-09-28T21:46:34.764Z,11.77
2022-09-28T21:49:07.382Z,11.72
2022-09-28T21:51:35.329Z,11.70
2022-09-28T21:54:02.551Z,11.70
2022-09-28T21:56:29.691Z,11.76
2022-09-28T21:58:56.994Z,11.69
2022-09-28T22:01:26.161Z,11.70
2022-09-28T22:03:56.540Z,11.67
2022-09-28T22:06:28.116Z,11.63
2022-09-28T22:08:56.402Z,11.67
2022-09-28T22:11:27.874Z,11.60
2022-09-28T22:13:59.025Z,11.56
2022-09-28T22:16:30.520Z,11.53
2022-09-28T22:18:59.423Z,11.55
2022-09-28T22:21:30.164Z,11.62
2022-09-28T22:24:03.688Z,11.59
2022-09-28T22:26:33.754Z,11.49
2022-09-28T22:29:05.018Z,11.46
2022-09-28T22:31:36.045Z,11.40
2022-09-28T22:34:04.665Z,11.33
2022-09-28T22:36:32.455Z,11.37
2022-09-28T22:38:59.930Z,11.34
2022-09-28T22:41:28.579Z,11.17
2022-09-28T22:43:56.139Z,11.21
2022-09-28T22:46:27.347Z,11.12
2022-09-28T22:48:58.417Z,11.21
2022-09-28T22:51:28.950Z,11.11
2022-09-28T22:53:56.783Z,11.07
2022-09-28T22:56:24.243Z,11.16
2022-09-28T22:58:51.518Z,11.16
2022-09-28T23:01:22.314Z,11.20
2022-09-28T23:03:52.115Z,11.12
2022-09-28T23:06:21.855Z,11.03
2022-09-28T23:08:50.542Z,10.94
2022-09-28T23:11:19.080Z,10.87
2022-09-28T23:13:51.145Z,10.83
2022-09-28T23:16:19.497Z,10.82
2022-09-28T23:18:48.931Z,10.85
2022-09-28T23:21:20.000Z,10.83
2022-09-28T23:24:03.352Z,10.75
2022-09-28T23:26:33.351Z,10.82
2022-09-28T23:29:00.841Z,10.77
2022-09-28T23:31:31.512Z,10.71
2022-09-28T23:34:03.109Z,10.76
2022-09-28T23:36:30.770Z,10.66
2022-09-28T23:38:58.243Z,10.73
2022-09-28T23:41:25.569Z,10.62
2022-09-28T23:43:52.753Z,10.58
2022-09-28T23:46:21.264Z,10.57
2022-09-28T23:48:49.980Z,10.56
2022-09-28T23:51:17.409Z,10.54
2022-09-28T23:53:45.787Z,10.53
2022-09-28T23:56:14.771Z,10.45
2022-09-28T23:58:42.761Z,10.40
